createdAt,value
2019-04-14T00:00:05.491Z,247.50
2019-04-14T00:01:04.970Z,292.50
2019-04-14T00:02:05.335Z,202.50
2019-04-14T00:03:05.067Z,270.00
2019-04-14T00:04:05.285Z,180.00
2019-04-14T00:05:06.038Z,315.00
2019-04-14T00:06:05.073Z,247.50
2019-04-14T00:07:05.859Z,225.00
2019-04-14T00:08:05.010Z,315.00
2019-04-14T00:09:05.372Z,225.00
2019-04-14T00:10:05.068Z,157.50
2019-04-14T00:11:06.168Z,225.00
2019-04-14T00:12:07.392Z,225.00
2019-04-14T00:13:05.036Z,225.00
2019-04-14T00:14:05.294Z,247.50
2019-04-14T00:15:17.613Z,225.00
2019-04-14T00:16:05.364Z,225.00
2019-04-14T00:17:05.072Z,270.00
2019-04-14T00:18:05.472Z,337.50
2019-04-14T00:19:05.048Z,180.00
2019-04-14T00:20:05.398Z,135.00
2019-04-14T00:21:05.001Z,225.00
2019-04-14T00:22:05.361Z,202.50
2019-04-14T00:23:05.074Z,135.00
2019-04-14T00:24:05.298Z,202.50
2019-04-14T00:25:05.068Z,180.00
2019-04-14T00:26:05.236Z,315.00
2019-04-14T00:27:06.271Z,225.00
2019-04-14T00:28:05.273Z,315.00
2019-04-14T00:29:05.041Z,247.50
2019-04-14T00:30:05.520Z,247.50
2019-04-14T00:31:04.935Z,292.50
2019-04-14T00:32:05.203Z,292.50
2019-04-14T00:33:06.181Z,247.50
2019-04-14T00:34:05.218Z,337.50
2019-04-14T00:35:06.001Z,292.50
2019-04-14T00:36:05.056Z,315.00
2019-04-14T00:37:05.574Z,315.00
2019-04-14T00:38:06.267Z,270.00
2019-04-14T00:39:05.313Z,292.50
2019-04-14T00:40:06.093Z,292.50
2019-04-14T00:41:05.258Z,292.50
2019-04-14T00:42:06.589Z,225.00
2019-04-14T00:43:04.994Z,292.50
2019-04-14T00:44:05.698Z,135.00
2019-04-14T00:45:05.067Z,247.50
2019-04-14T00:46:05.850Z,157.50
2019-04-14T00:47:05.065Z,247.50
2019-04-14T00:48:10.837Z,135.00
2019-04-14T00:49:05.029Z,337.50
2019-04-14T00:50:05.821Z,315.00
2019-04-14T00:51:05.068Z,337.50
2019-04-14T00:52:05.788Z,225.00
2019-04-14T00:53:05.503Z,315.00
2019-04-14T00:54:04.948Z,247.50
2019-04-14T00:55:05.391Z,202.50
2019-04-14T00:56:06.167Z,292.50
2019-04-14T00:57:05.194Z,315.00
2019-04-14T00:58:05.993Z,180.00
2019-04-14T00:59:05.081Z,292.50
2019-04-14T01:00:05.974Z,337.50
2019-04-14T01:01:05.105Z,180.00
2019-04-14T01:02:05.650Z,180.00
2019-04-14T01:03:05.050Z,270.00
2019-04-14T01:04:05.601Z,315.00
2019-04-14T01:05:05.053Z,225.00
2019-04-14T01:06:05.427Z,337.50
2019-04-14T01:07:05.024Z,202.50
2019-04-14T01:08:05.282Z,112.50
2019-04-14T01:09:06.349Z,247.50
2019-04-14T01:10:05.983Z,225.00
2019-04-14T01:11:05.274Z,225.00
2019-04-14T01:12:05.981Z,135.00
2019-04-14T01:13:08.041Z,112.50
2019-04-14T01:14:05.870Z,67.50
2019-04-14T01:15:05.069Z,67.50
2019-04-14T01:16:11.562Z,67.50
2019-04-14T01:17:05.121Z,45.00
2019-04-14T01:18:05.709Z,67.50
2019-04-14T01:19:05.005Z,45.00
2019-04-14T01:20:05.709Z,270.00
2019-04-14T01:21:05.111Z,45.00
2019-04-14T01:22:05.330Z,22.50
2019-04-14T01:23:06.288Z,157.50
2019-04-14T01:24:05.302Z,67.50
2019-04-14T01:25:06.305Z,45.00
2019-04-14T01:26:05.134Z,22.50
2019-04-14T01:27:06.040Z,180.00
2019-04-14T01:28:05.064Z,337.50
2019-04-14T01:29:05.847Z,202.50
2019-04-14T01:30:05.096Z,225.00
2019-04-14T01:31:05.510Z,292.50
2019-04-14T01:32:05.079Z,247.50
2019-04-14T01:33:05.438Z,337.50
2019-04-14T01:34:06.244Z,135.00
2019-04-14T01:35:05.312Z,202.50
2019-04-14T01:36:06.071Z,225.00
2019-04-14T01:37:05.197Z,292.50
2019-04-14T01:38:05.916Z,337.50
2019-04-14T01:39:05.036Z,112.50
2019-04-14T01:40:05.295Z,225.00
2019-04-14T01:41:06.337Z,202.50
2019-04-14T01:42:05.106Z,315.00
2019-04-14T01:43:05.964Z,337.50
2019-04-14T01:44:05.110Z,202.50
2019-04-14T01:45:05.700Z,247.50
2019-04-14T01:46:12.475Z,225.00
2019-04-14T01:47:05.338Z,202.50
2019-04-14T01:48:06.009Z,315.00
2019-04-14T01:49:05.104Z,315.00
2019-04-14T01:50:05.929Z,315.00
2019-04-14T01:51:05.134Z,157.50
2019-04-14T01:52:05.704Z,202.50
2019-04-14T01:53:05.419Z,180.00
2019-04-14T01:54:06.043Z,180.00
2019-04-14T01:55:05.046Z,157.50
2019-04-14T01:56:05.654Z,315.00
2019-04-14T01:57:05.148Z,292.50
2019-04-14T01:58:05.397Z,157.50
2019-04-14T01:59:05.084Z,157.50
2019-04-14T02:00:05.362Z,202.50
2019-04-14T02:01:06.182Z,157.50
2019-04-14T02:02:05.172Z,202.50
2019-04-14T02:03:06.168Z,135.00
2019-04-14T02:04:05.131Z,157.50
2019-04-14T02:05:06.032Z,202.50
2019-04-14T02:06:05.027Z,157.50
2019-04-14T02:07:05.901Z,202.50
2019-04-14T02:08:05.160Z,247.50
2019-04-14T02:09:05.421Z,157.50
2019-04-14T02:10:06.360Z,112.50
2019-04-14T02:11:05.282Z,180.00
2019-04-14T02:12:06.238Z,202.50
2019-04-14T02:13:05.064Z,202.50
2019-04-14T02:14:06.123Z,180.00
2019-04-14T02:15:05.125Z,112.50
2019-04-14T02:16:15.115Z,292.50
2019-04-14T02:17:06.429Z,157.50
2019-04-14T02:18:05.611Z,225.00
2019-04-14T02:19:05.172Z,247.50
2019-04-14T02:20:05.609Z,270.00
2019-04-14T02:21:06.335Z,315.00
2019-04-14T02:22:05.206Z,270.00
2019-04-14T02:23:06.096Z,180.00
2019-04-14T02:24:05.133Z,202.50
2019-04-14T02:25:05.664Z,157.50
2019-04-14T02:26:05.056Z,135.00
2019-04-14T02:27:05.578Z,180.00
2019-04-14T02:28:05.097Z,270.00
2019-04-14T02:29:05.777Z,270.00
2019-04-14T02:30:07.296Z,225.00
2019-04-14T02:31:19.496Z,135.00
2019-04-14T02:32:32.515Z,202.50
2019-04-14T02:33:41.395Z,225.00
2019-04-14T02:36:36.354Z,292.50
2019-04-14T02:39:39.275Z,315.00
2019-04-14T02:40:39.237Z,270.00
2019-04-14T02:42:36.820Z,247.50
2019-04-14T02:45:40.619Z,157.50
2019-04-14T02:46:34.495Z,180.00
2019-04-14T02:48:44.302Z,180.00
2019-04-14T02:51:33.640Z,180.00
2019-04-14T02:52:57.031Z,90.00
2019-04-14T02:53:35.182Z,112.50
2019-04-14T02:54:43.590Z,135.00
2019-04-14T02:55:29.791Z,292.50
2019-04-14T02:56:33.850Z,202.50
2019-04-14T02:57:30.419Z,135.00
2019-04-14T02:58:40.310Z,180.00
2019-04-14T02:59:26.891Z,202.50
2019-04-14T03:00:35.614Z,202.50
2019-04-14T03:01:35.345Z,202.50
2019-04-14T03:02:38.600Z,202.50
2019-04-14T03:03:43.416Z,315.00
2019-04-14T03:04:34.016Z,247.50
2019-04-14T03:06:33.594Z,292.50
2019-04-14T03:07:37.886Z,112.50
2019-04-14T03:08:31.328Z,135.00
2019-04-14T03:09:36.405Z,157.50
2019-04-14T03:10:33.956Z,225.00
2019-04-14T03:11:31.528Z,90.00
2019-04-14T03:12:36.286Z,112.50
2019-04-14T03:14:35.997Z,90.00
2019-04-14T03:15:37.790Z,90.00
2019-04-14T03:16:39.664Z,135.00
2019-04-14T03:17:36.851Z,135.00
2019-04-14T03:18:44.588Z,180.00
2019-04-14T03:19:35.538Z,67.50
2019-04-14T03:20:32.251Z,45.00
2019-04-14T03:21:34.597Z,67.50
2019-04-14T03:23:33.029Z,292.50
2019-04-14T03:24:31.929Z,337.50
2019-04-14T03:25:26.517Z,180.00
2019-04-14T03:26:26.920Z,135.00
2019-04-14T03:27:43.797Z,112.50
2019-04-14T03:28:36.658Z,180.00
2019-04-14T03:29:40.677Z,45.00
2019-04-14T03:30:57.825Z,45.00
2019-04-14T03:31:52.644Z,157.50
2019-04-14T03:32:52.715Z,225.00
2019-04-14T03:34:44.146Z,225.00
2019-04-14T03:37:45.152Z,315.00
2019-04-14T03:38:34.423Z,247.50
2019-04-14T03:40:34.348Z,112.50
2019-04-14T03:41:29.158Z,337.50
2019-04-14T03:42:37.759Z,337.50
2019-04-14T03:43:30.587Z,202.50
2019-04-14T03:44:34.711Z,315.00
2019-04-14T03:45:44.142Z,315.00
2019-04-14T03:46:36.256Z,292.50
2019-04-14T03:47:31.170Z,292.50
2019-04-14T03:49:40.579Z,315.00
2019-04-14T03:50:28.647Z,22.50
2019-04-14T03:51:38.255Z,22.50
2019-04-14T03:52:48.105Z,45.00
2019-04-14T03:53:40.210Z,45.00
2019-04-14T03:54:25.954Z,22.50
2019-04-14T03:55:24.026Z,22.50
2019-04-14T03:56:10.377Z,22.50
2019-04-14T03:57:06.179Z,67.50
2019-04-14T03:58:05.944Z,45.00
2019-04-14T03:59:06.307Z,22.50
2019-04-14T04:00:05.351Z,45.00
2019-04-14T04:01:06.173Z,45.00
2019-04-14T04:02:05.380Z,67.50
2019-04-14T04:03:06.260Z,67.50
2019-04-14T04:04:05.375Z,90.00
2019-04-14T04:05:06.325Z,67.50
2019-04-14T04:06:05.358Z,67.50
2019-04-14T04:07:06.232Z,45.00
2019-04-14T04:08:05.158Z,67.50
2019-04-14T04:09:06.253Z,45.00
2019-04-14T04:10:05.254Z,67.50
2019-04-14T04:11:06.111Z,45.00
2019-04-14T04:12:05.315Z,45.00
2019-04-14T04:13:06.180Z,45.00
2019-04-14T04:14:05.328Z,67.50
2019-04-14T04:15:06.146Z,67.50
2019-04-14T04:16:05.236Z,22.50
2019-04-14T04:17:05.761Z,90.00
2019-04-14T04:18:05.199Z,22.50
2019-04-14T04:19:10.195Z,180.00
2019-04-14T04:20:05.189Z,135.00
2019-04-14T04:21:05.304Z,180.00
2019-04-14T04:22:06.317Z,22.50
2019-04-14T04:23:05.292Z,45.00
2019-04-14T04:24:06.368Z,45.00
2019-04-14T04:25:05.317Z,45.00
2019-04-14T04:26:06.158Z,67.50
2019-04-14T04:27:05.109Z,67.50
2019-04-14T04:28:06.006Z,45.00
2019-04-14T04:29:05.138Z,45.00
2019-04-14T04:30:05.962Z,67.50
2019-04-14T04:31:05.130Z,45.00
2019-04-14T04:32:05.687Z,45.00
2019-04-14T04:33:05.129Z,90.00
2019-04-14T04:34:05.414Z,112.50
2019-04-14T04:35:06.349Z,112.50
2019-04-14T04:36:05.343Z,112.50
2019-04-14T04:37:06.088Z,90.00
2019-04-14T04:38:05.276Z,90.00
2019-04-14T04:39:06.093Z,67.50
2019-04-14T04:40:05.170Z,67.50
2019-04-14T04:41:05.883Z,45.00
2019-04-14T04:42:05.253Z,90.00
2019-04-14T04:43:05.861Z,22.50
2019-04-14T04:44:05.258Z,67.50
2019-04-14T04:45:06.071Z,45.00
2019-04-14T04:46:05.183Z,22.50
2019-04-14T04:47:05.689Z,22.50
2019-04-14T04:48:05.180Z,45.00
2019-04-14T04:49:11.713Z,67.50
2019-04-14T04:50:06.432Z,90.00
2019-04-14T04:51:05.248Z,67.50
2019-04-14T04:52:06.274Z,67.50
2019-04-14T04:53:05.252Z,45.00
2019-04-14T04:54:05.979Z,22.50
2019-04-14T04:55:05.182Z,22.50
2019-04-14T04:56:05.750Z,45.00
2019-04-14T04:57:05.099Z,180.00
2019-04-14T04:58:05.672Z,45.00
2019-04-14T04:59:05.487Z,45.00
2019-04-14T05:00:05.106Z,45.00
2019-04-14T05:01:05.680Z,45.00
2019-04-14T05:02:05.270Z,45.00
2019-04-14T05:03:05.733Z,45.00
2019-04-14T05:04:05.175Z,45.00
2019-04-14T05:05:05.586Z,45.00
2019-04-14T05:06:05.222Z,45.00
2019-04-14T05:07:05.604Z,45.00
2019-04-14T05:08:06.337Z,45.00
2019-04-14T05:09:05.658Z,45.00
2019-04-14T05:10:05.251Z,45.00
2019-04-14T05:11:05.419Z,45.00
2019-04-14T05:12:05.191Z,45.00
2019-04-14T05:13:05.254Z,45.00
2019-04-14T05:14:05.196Z,45.00
2019-04-14T05:15:05.365Z,45.00
2019-04-14T05:16:06.255Z,45.00
2019-04-14T05:17:05.822Z,45.00
2019-04-14T05:18:05.253Z,45.00
2019-04-14T05:19:17.185Z,45.00
2019-04-14T05:20:05.302Z,45.00
2019-04-14T05:21:06.065Z,45.00
2019-04-14T05:22:05.258Z,45.00
2019-04-14T05:23:05.926Z,45.00
2019-04-14T05:24:05.183Z,45.00
2019-04-14T05:25:05.768Z,45.00
2019-04-14T05:26:05.198Z,45.00
2019-04-14T05:27:05.756Z,45.00
2019-04-14T05:28:05.298Z,45.00
2019-04-14T05:29:05.673Z,45.00
2019-04-14T05:30:05.204Z,45.00
2019-04-14T05:31:05.487Z,45.00
2019-04-14T05:32:05.207Z,45.00
2019-04-14T05:33:05.346Z,45.00
2019-04-14T05:34:06.416Z,45.00
2019-04-14T05:35:05.291Z,45.00
2019-04-14T05:36:06.350Z,45.00
2019-04-14T05:37:05.271Z,45.00
2019-04-14T05:38:06.196Z,45.00
2019-04-14T05:39:05.334Z,45.00
2019-04-14T05:40:05.894Z,45.00
2019-04-14T05:41:05.210Z,45.00
2019-04-14T05:42:12.569Z,45.00
2019-04-14T05:43:05.197Z,45.00
2019-04-14T05:44:06.330Z,45.00
2019-04-14T05:45:06.518Z,45.00
2019-04-14T05:46:05.564Z,45.00
2019-04-14T05:47:06.432Z,45.00
2019-04-14T05:48:05.397Z,22.50
2019-04-14T05:49:06.454Z,22.50
2019-04-14T05:50:05.290Z,90.00
2019-04-14T05:51:06.402Z,202.50
2019-04-14T05:52:05.600Z,135.00
2019-04-14T05:53:06.423Z,292.50
2019-04-14T05:54:05.654Z,180.00
2019-04-14T05:55:06.535Z,247.50
2019-04-14T05:56:05.742Z,225.00
2019-04-14T05:57:06.523Z,202.50
2019-04-14T05:58:05.701Z,247.50
2019-04-14T05:59:06.602Z,225.00
2019-04-14T06:00:05.984Z,157.50
2019-04-14T06:01:05.277Z,292.50
2019-04-14T06:02:05.199Z,135.00
2019-04-14T06:03:05.964Z,135.00
2019-04-14T06:04:05.163Z,157.50
2019-04-14T06:05:06.469Z,292.50
2019-04-14T06:06:05.205Z,292.50
2019-04-14T06:07:05.241Z,270.00
2019-04-14T06:08:05.304Z,225.00
2019-04-14T06:09:05.303Z,247.50
2019-04-14T06:10:05.281Z,157.50
2019-04-14T06:11:05.234Z,202.50
2019-04-14T06:12:05.266Z,247.50
2019-04-14T06:13:05.304Z,135.00
2019-04-14T06:14:05.240Z,180.00
2019-04-14T06:15:05.237Z,247.50
2019-04-14T06:16:05.238Z,135.00
2019-04-14T06:17:05.317Z,292.50
2019-04-14T06:18:05.307Z,202.50
2019-04-14T06:19:05.273Z,247.50
2019-04-14T06:20:05.328Z,292.50
2019-04-14T06:21:05.312Z,315.00
2019-04-14T06:22:05.314Z,292.50
2019-04-14T06:23:05.316Z,315.00
2019-04-14T06:24:05.278Z,247.50
2019-04-14T06:25:05.265Z,247.50
2019-04-14T06:26:05.314Z,180.00
2019-04-14T06:27:05.248Z,292.50
2019-04-14T06:28:05.327Z,270.00
2019-04-14T06:29:05.317Z,225.00
2019-04-14T06:30:05.245Z,270.00
2019-04-14T06:31:05.323Z,292.50
2019-04-14T06:32:05.262Z,225.00
2019-04-14T06:33:05.329Z,270.00
2019-04-14T06:34:05.306Z,270.00
2019-04-14T06:35:05.249Z,247.50
2019-04-14T06:36:05.258Z,270.00
2019-04-14T06:37:05.253Z,270.00
2019-04-14T06:38:05.930Z,247.50
2019-04-14T06:39:05.320Z,292.50
2019-04-14T06:40:05.254Z,270.00
2019-04-14T06:41:05.335Z,202.50
2019-04-14T06:42:05.270Z,202.50
2019-04-14T06:43:05.292Z,180.00
2019-04-14T06:44:05.329Z,315.00
2019-04-14T06:45:05.327Z,225.00
2019-04-14T06:46:05.337Z,270.00
2019-04-14T06:47:05.329Z,292.50
2019-04-14T06:48:05.266Z,247.50
2019-04-14T06:49:05.328Z,247.50
2019-04-14T06:50:05.265Z,247.50
2019-04-14T06:51:05.278Z,225.00
2019-04-14T06:52:05.262Z,225.00
2019-04-14T06:53:05.329Z,225.00
2019-04-14T06:54:05.325Z,270.00
2019-04-14T06:55:05.333Z,292.50
2019-04-14T06:56:05.265Z,180.00
2019-04-14T06:57:05.336Z,225.00
2019-04-14T06:58:05.334Z,180.00
2019-04-14T06:59:05.351Z,225.00
2019-04-14T07:00:05.277Z,292.50
2019-04-14T07:01:05.345Z,270.00
2019-04-14T07:02:05.271Z,292.50
2019-04-14T07:03:05.340Z,270.00
2019-04-14T07:04:05.356Z,292.50
2019-04-14T07:05:05.274Z,292.50
2019-04-14T07:06:05.342Z,270.00
2019-04-14T07:07:05.346Z,270.00
2019-04-14T07:08:05.307Z,202.50
2019-04-14T07:09:05.285Z,270.00
2019-04-14T07:10:05.277Z,202.50
2019-04-14T07:11:05.275Z,247.50
2019-04-14T07:12:05.317Z,270.00
2019-04-14T07:13:05.373Z,270.00
2019-04-14T07:14:05.357Z,247.50
2019-04-14T07:15:05.349Z,247.50
2019-04-14T07:16:05.281Z,202.50
2019-04-14T07:17:05.363Z,180.00
2019-04-14T07:18:05.282Z,225.00
2019-04-14T07:19:05.282Z,270.00
2019-04-14T07:20:05.357Z,247.50
2019-04-14T07:21:05.354Z,225.00
2019-04-14T07:22:05.365Z,247.50
2019-04-14T07:23:05.283Z,157.50
2019-04-14T07:24:05.357Z,157.50
2019-04-14T07:25:05.361Z,247.50
2019-04-14T07:26:05.290Z,292.50
2019-04-14T07:27:05.365Z,270.00
2019-04-14T07:28:05.253Z,202.50
2019-04-14T07:29:05.229Z,180.00
2019-04-14T07:30:05.282Z,270.00
2019-04-14T07:31:05.298Z,270.00
2019-04-14T07:32:05.314Z,315.00
2019-04-14T07:33:05.275Z,292.50
2019-04-14T07:34:05.350Z,225.00
2019-04-14T07:35:05.242Z,247.50
2019-04-14T07:36:05.230Z,247.50
2019-04-14T07:37:05.319Z,270.00
2019-04-14T07:38:05.363Z,292.50
2019-04-14T07:39:05.367Z,247.50
2019-04-14T07:40:05.311Z,292.50
2019-04-14T07:41:05.373Z,270.00
2019-04-14T07:42:05.300Z,292.50
2019-04-14T07:43:05.381Z,270.00
2019-04-14T07:44:05.304Z,247.50
2019-04-14T07:45:05.381Z,247.50
2019-04-14T07:46:05.302Z,180.00
2019-04-14T07:47:05.306Z,135.00
2019-04-14T07:48:05.385Z,292.50
2019-04-14T07:49:05.376Z,247.50
2019-04-14T07:50:14.409Z,180.00
2019-04-14T07:51:05.365Z,180.00
2019-04-14T07:52:05.313Z,225.00
2019-04-14T07:53:05.389Z,225.00
2019-04-14T07:54:05.339Z,180.00
2019-04-14T07:55:05.319Z,225.00
2019-04-14T07:56:05.309Z,180.00
2019-04-14T07:57:05.311Z,225.00
2019-04-14T07:58:05.373Z,202.50
2019-04-14T07:59:05.311Z,270.00
2019-04-14T08:00:05.385Z,247.50
2019-04-14T08:01:05.315Z,247.50
2019-04-14T08:02:05.313Z,270.00
2019-04-14T08:03:05.373Z,270.00
2019-04-14T08:04:05.306Z,225.00
2019-04-14T08:05:05.375Z,247.50
2019-04-14T08:06:05.316Z,270.00
2019-04-14T08:07:05.378Z,270.00
2019-04-14T08:08:05.340Z,180.00
2019-04-14T08:09:05.375Z,202.50
2019-04-14T08:10:05.345Z,202.50
2019-04-14T08:11:05.330Z,292.50
2019-04-14T08:12:05.381Z,270.00
2019-04-14T08:13:05.341Z,292.50
2019-04-14T08:14:05.356Z,292.50
2019-04-14T08:15:05.279Z,292.50
2019-04-14T08:16:05.293Z,270.00
2019-04-14T08:17:05.285Z,315.00
2019-04-14T08:18:05.372Z,247.50
2019-04-14T08:19:05.357Z,247.50
2019-04-14T08:20:05.267Z,270.00
2019-04-14T08:21:05.285Z,292.50
2019-04-14T08:22:05.265Z,270.00
2019-04-14T08:23:05.375Z,247.50
2019-04-14T08:24:05.386Z,270.00
2019-04-14T08:25:05.388Z,270.00
2019-04-14T08:26:05.331Z,292.50
2019-04-14T08:27:05.389Z,292.50
2019-04-14T08:28:05.336Z,247.50
2019-04-14T08:29:05.405Z,292.50
2019-04-14T08:30:05.332Z,225.00
2019-04-14T08:31:05.402Z,180.00
2019-04-14T08:32:05.362Z,247.50
2019-04-14T08:33:05.419Z,247.50
2019-04-14T08:34:05.336Z,202.50
2019-04-14T08:35:05.410Z,180.00
2019-04-14T08:36:05.403Z,180.00
2019-04-14T08:37:05.343Z,247.50
2019-04-14T08:39:05.420Z,180.00
2019-04-14T08:40:05.402Z,247.50
2019-04-14T08:41:05.330Z,157.50
2019-04-14T08:42:05.464Z,225.00
2019-04-14T08:43:05.341Z,202.50
2019-04-14T08:44:05.409Z,270.00
2019-04-14T08:45:05.416Z,225.00
2019-04-14T08:46:05.328Z,292.50
2019-04-14T08:47:05.409Z,180.00
2019-04-14T08:48:05.331Z,225.00
2019-04-14T08:49:05.362Z,135.00
2019-04-14T08:50:05.271Z,157.50
2019-04-14T08:51:05.335Z,180.00
2019-04-14T08:52:05.357Z,247.50
2019-04-14T08:53:05.398Z,270.00
2019-04-14T08:54:05.280Z,270.00
2019-04-14T08:55:05.343Z,270.00
2019-04-14T08:56:05.315Z,292.50
2019-04-14T08:57:05.316Z,247.50
2019-04-14T08:58:05.426Z,292.50
2019-04-14T08:59:05.425Z,270.00
2019-04-14T09:00:05.443Z,292.50
2019-04-14T09:01:05.356Z,270.00
2019-04-14T09:03:05.437Z,270.00
2019-04-14T09:04:05.388Z,225.00
2019-04-14T09:05:05.372Z,225.00
2019-04-14T09:06:05.359Z,247.50
2019-04-14T09:07:05.446Z,270.00
2019-04-14T09:08:05.359Z,247.50
2019-04-14T09:09:07.355Z,292.50
2019-04-14T09:10:05.369Z,157.50
2019-04-14T09:11:05.423Z,270.00
2019-04-14T09:12:15.448Z,292.50
2019-04-14T09:13:05.366Z,270.00
2019-04-14T09:14:05.429Z,270.00
2019-04-14T09:15:05.359Z,292.50
2019-04-14T09:16:05.450Z,292.50
2019-04-14T09:17:05.355Z,292.50
2019-04-14T09:18:05.437Z,292.50
2019-04-14T09:19:07.827Z,292.50
2019-04-14T09:20:05.426Z,292.50
2019-04-14T09:21:05.450Z,247.50
2019-04-14T09:22:05.444Z,270.00
2019-04-14T09:23:05.446Z,270.00
2019-04-14T09:24:05.447Z,225.00
2019-04-14T09:25:05.443Z,292.50
2019-04-14T09:26:05.459Z,292.50
2019-04-14T09:27:05.378Z,270.00
2019-04-14T09:28:05.447Z,292.50
2019-04-14T09:29:05.447Z,292.50
2019-04-14T09:30:05.378Z,270.00
2019-04-14T09:31:05.389Z,292.50
2019-04-14T09:32:05.449Z,292.50
2019-04-14T09:33:05.469Z,315.00
2019-04-14T09:34:05.400Z,270.00
2019-04-14T09:35:05.456Z,292.50
2019-04-14T09:36:05.381Z,270.00
2019-04-14T09:37:05.457Z,270.00
2019-04-14T09:38:05.374Z,112.50
2019-04-14T09:39:05.449Z,247.50
2019-04-14T09:40:05.383Z,292.50
2019-04-14T09:41:05.452Z,270.00
2019-04-14T09:42:05.378Z,270.00
2019-04-14T09:43:05.474Z,270.00
2019-04-14T09:44:05.449Z,247.50
2019-04-14T09:45:05.375Z,270.00
2019-04-14T09:46:05.458Z,270.00
2019-04-14T09:47:05.379Z,202.50
2019-04-14T09:48:05.392Z,270.00
2019-04-14T09:49:05.397Z,270.00
2019-04-14T09:50:05.460Z,270.00
2019-04-14T09:51:05.455Z,292.50
2019-04-14T09:52:05.476Z,270.00
2019-04-14T09:53:05.466Z,292.50
2019-04-14T09:54:05.519Z,225.00
2019-04-14T09:55:05.465Z,292.50
2019-04-14T09:56:05.416Z,292.50
2019-04-14T09:57:05.413Z,292.50
2019-04-14T09:58:05.415Z,292.50
2019-04-14T09:59:05.421Z,247.50
2019-04-14T10:00:05.399Z,270.00
2019-04-14T10:01:05.472Z,225.00
2019-04-14T10:02:05.418Z,180.00
2019-04-14T10:03:05.477Z,225.00
2019-04-14T10:04:05.476Z,247.50
2019-04-14T10:05:05.408Z,225.00
2019-04-14T10:06:05.479Z,270.00
2019-04-14T10:07:05.417Z,135.00
2019-04-14T10:08:05.408Z,202.50
2019-04-14T10:09:05.407Z,202.50
2019-04-14T10:10:05.550Z,225.00
2019-04-14T10:11:05.488Z,202.50
2019-04-14T10:12:05.500Z,202.50
2019-04-14T10:13:05.519Z,202.50
2019-04-14T10:14:05.481Z,247.50
2019-04-14T10:15:05.490Z,180.00
2019-04-14T10:16:05.480Z,157.50
2019-04-14T10:17:05.484Z,180.00
2019-04-14T10:18:05.399Z,112.50
2019-04-14T10:19:05.470Z,135.00
2019-04-14T10:20:05.411Z,270.00
2019-04-14T10:21:16.705Z,202.50
2019-04-14T10:22:05.403Z,225.00
2019-04-14T10:23:05.482Z,247.50
2019-04-14T10:24:05.476Z,270.00
2019-04-14T10:25:05.447Z,202.50
2019-04-14T10:26:05.406Z,225.00
2019-04-14T10:27:05.478Z,202.50
2019-04-14T10:28:05.450Z,225.00
2019-04-14T10:29:05.490Z,225.00
2019-04-14T10:30:05.433Z,202.50
2019-04-14T10:31:05.493Z,247.50
2019-04-14T10:32:05.517Z,202.50
2019-04-14T10:33:05.436Z,225.00
2019-04-14T10:34:05.424Z,270.00
2019-04-14T10:35:05.434Z,225.00
2019-04-14T10:36:05.509Z,202.50
2019-04-14T10:37:05.484Z,202.50
2019-04-14T10:38:05.487Z,247.50
2019-04-14T10:39:05.490Z,157.50
2019-04-14T10:40:06.149Z,247.50
2019-04-14T10:41:05.490Z,292.50
2019-04-14T10:42:05.416Z,247.50
2019-04-14T10:43:05.495Z,180.00
2019-04-14T10:44:05.422Z,225.00
2019-04-14T10:45:05.492Z,180.00
2019-04-14T10:46:05.497Z,180.00
2019-04-14T10:47:05.418Z,225.00
2019-04-14T10:48:05.505Z,202.50
2019-04-14T10:49:05.443Z,225.00
2019-04-14T10:50:05.458Z,225.00
2019-04-14T10:51:05.527Z,270.00
2019-04-14T10:52:05.437Z,202.50
2019-04-14T10:53:05.439Z,225.00
2019-04-14T10:54:05.521Z,202.50
2019-04-14T10:55:05.439Z,202.50
2019-04-14T10:56:05.538Z,202.50
2019-04-14T10:57:05.558Z,225.00
2019-04-14T10:58:05.494Z,202.50
2019-04-14T10:59:05.435Z,225.00
2019-04-14T11:00:05.495Z,180.00
2019-04-14T11:01:05.504Z,202.50
2019-04-14T11:02:05.463Z,270.00
2019-04-14T11:03:05.503Z,180.00
2019-04-14T11:04:07.889Z,270.00
2019-04-14T11:05:05.433Z,270.00
2019-04-14T11:06:05.417Z,247.50
2019-04-14T11:07:05.519Z,202.50
2019-04-14T11:08:05.448Z,247.50
2019-04-14T11:09:05.412Z,225.00
2019-04-14T11:10:05.508Z,247.50
2019-04-14T11:11:05.506Z,247.50
2019-04-14T11:12:05.463Z,202.50
2019-04-14T11:13:05.423Z,202.50
2019-04-14T11:14:05.499Z,247.50
2019-04-14T11:15:05.455Z,202.50
2019-04-14T11:16:05.387Z,202.50
2019-04-14T11:17:05.397Z,202.50
2019-04-14T11:18:05.425Z,225.00
2019-04-14T11:19:05.520Z,202.50
2019-04-14T11:20:05.516Z,270.00
2019-04-14T11:21:05.516Z,225.00
2019-04-14T11:22:05.461Z,247.50
2019-04-14T11:23:05.458Z,225.00
2019-04-14T11:24:05.520Z,180.00
2019-04-14T11:25:05.446Z,270.00
2019-04-14T11:26:05.443Z,180.00
2019-04-14T11:27:05.525Z,135.00
2019-04-14T11:28:05.450Z,270.00
2019-04-14T11:29:05.446Z,292.50
2019-04-14T11:30:05.534Z,292.50
2019-04-14T11:31:05.452Z,270.00
2019-04-14T11:32:05.525Z,225.00
2019-04-14T11:33:05.523Z,157.50
2019-04-14T11:34:05.452Z,225.00
2019-04-14T11:35:05.532Z,180.00
2019-04-14T11:36:05.450Z,180.00
2019-04-14T11:37:05.459Z,202.50
2019-04-14T11:38:05.545Z,180.00
2019-04-14T11:39:05.477Z,225.00
2019-04-14T11:40:05.610Z,225.00
2019-04-14T11:41:05.562Z,157.50
2019-04-14T11:42:05.545Z,180.00
2019-04-14T11:43:05.563Z,157.50
2019-04-14T11:44:05.537Z,225.00
2019-04-14T11:45:05.517Z,225.00
2019-04-14T11:46:05.550Z,247.50
2019-04-14T11:47:05.649Z,202.50
2019-04-14T11:48:05.521Z,270.00
2019-04-14T11:49:05.485Z,135.00
2019-04-14T11:50:05.493Z,180.00
2019-04-14T11:51:05.463Z,225.00
2019-04-14T11:52:05.432Z,202.50
2019-04-14T11:53:05.545Z,247.50
2019-04-14T11:54:05.441Z,292.50
2019-04-14T11:55:05.452Z,202.50
2019-04-14T11:56:05.470Z,270.00
2019-04-14T11:57:05.502Z,270.00
2019-04-14T11:58:05.561Z,247.50
2019-04-14T11:59:05.558Z,247.50
2019-04-14T12:00:05.518Z,180.00
2019-04-14T12:01:05.482Z,202.50
2019-04-14T12:02:05.560Z,202.50
2019-04-14T12:03:05.572Z,247.50
2019-04-14T12:04:05.566Z,202.50
2019-04-14T12:05:05.555Z,180.00
2019-04-14T12:06:05.504Z,225.00
2019-04-14T12:07:05.561Z,225.00
2019-04-14T12:08:05.475Z,225.00
2019-04-14T12:09:05.475Z,202.50
2019-04-14T12:10:05.477Z,202.50
2019-04-14T12:11:05.554Z,180.00
2019-04-14T12:12:05.487Z,202.50
2019-04-14T12:13:05.484Z,202.50
2019-04-14T12:14:05.560Z,202.50
2019-04-14T12:15:07.605Z,202.50
2019-04-14T12:16:05.480Z,202.50
2019-04-14T12:17:05.486Z,202.50
2019-04-14T12:18:05.484Z,202.50
2019-04-14T12:19:05.561Z,157.50
2019-04-14T12:20:05.471Z,180.00
2019-04-14T12:21:05.556Z,180.00
2019-04-14T12:22:08.516Z,202.50
2019-04-14T12:23:05.524Z,247.50
2019-04-14T12:24:05.562Z,247.50
2019-04-14T12:25:05.475Z,180.00
2019-04-14T12:26:06.117Z,180.00
2019-04-14T12:27:05.492Z,202.50
2019-04-14T12:28:05.462Z,202.50
2019-04-14T12:29:06.416Z,180.00
2019-04-14T12:30:06.425Z,202.50
2019-04-14T12:31:06.515Z,247.50
2019-04-14T12:32:06.370Z,225.00
2019-04-14T12:33:05.523Z,202.50
2019-04-14T12:34:05.457Z,225.00
2019-04-14T12:35:05.510Z,202.50
2019-04-14T12:36:05.439Z,180.00
2019-04-14T12:37:05.464Z,135.00
2019-04-14T12:38:05.578Z,225.00
2019-04-14T12:39:05.576Z,225.00
2019-04-14T12:40:05.502Z,225.00
2019-04-14T12:41:06.151Z,202.50
2019-04-14T12:42:05.512Z,180.00
2019-04-14T12:43:05.575Z,247.50
2019-04-14T12:44:05.510Z,202.50
2019-04-14T12:45:05.512Z,180.00
2019-04-14T12:46:06.289Z,180.00
2019-04-14T12:47:05.506Z,202.50
2019-04-14T12:48:05.578Z,157.50
2019-04-14T12:49:05.526Z,225.00
2019-04-14T12:50:05.522Z,247.50
2019-04-14T12:51:05.596Z,247.50
2019-04-14T12:52:05.598Z,247.50